sensor_id;sensor_type;location;lat;lon;timestamp;P1;durP1;ratioP1;P2;durP2;ratioP2
79126;SDS011;68528;48.814;8.904;2023-09-19T00:00:19;3.78;;;1.30;;
79126;SDS011;68528;48.814;8.904;2023-09-19T00:02:51;0.82;;;0.57;;
79126;SDS011;68528;48.814;8.904;2023-09-19T00:05:17;2.78;;;0.82;;
79126;SDS011;68528;48.814;8.904;2023-09-19T00:07:43;2.05;;;1.10;;
79126;SDS011;68528;48.814;8.904;2023-09-19T00:10:10;1.65;;;0.70;;
79126;SDS011;68528;48.814;8.904;2023-09-19T00:12:35;1.30;;;0.77;;
79126;SDS011;68528;48.814;8.904;2023-09-19T00:15:00;1.10;;;0.77;;
79126;SDS011;68528;48.814;8.904;2023-09-19T00:19:57;2.75;;;0.90;;
79126;SDS011;68528;48.814;8.904;2023-09-19T00:22:22;1.55;;;0.80;;
79126;SDS011;68528;48.814;8.904;2023-09-19T00:24:47;3.70;;;0.80;;
79126;SDS011;68528;48.814;8.904;2023-09-19T00:27:13;1.63;;;0.77;;
79126;SDS011;68528;48.814;8.904;2023-09-19T00:29:39;2.95;;;0.70;;
79126;SDS011;68528;48.814;8.904;2023-09-19T00:32:06;2.72;;;0.57;;
79126;SDS011;68528;48.814;8.904;2023-09-19T00:34:32;3.20;;;1.05;;
79126;SDS011;68528;48.814;8.904;2023-09-19T00:36:59;2.35;;;0.73;;
79126;SDS011;68528;48.814;8.904;2023-09-19T00:39:24;2.63;;;0.55;;
79126;SDS011;68528;48.814;8.904;2023-09-19T00:41:50;1.00;;;0.60;;
79126;SDS011;68528;48.814;8.904;2023-09-19T00:44:16;2.55;;;0.80;;
79126;SDS011;68528;48.814;8.904;2023-09-19T00:46:43;1.35;;;0.55;;
79126;SDS011;68528;48.814;8.904;2023-09-19T00:49:30;1.98;;;0.60;;
79126;SDS011;68528;48.814;8.904;2023-09-19T00:51:57;1.63;;;0.60;;
79126;SDS011;68528;48.814;8.904;2023-09-19T00:54:24;1.48;;;0.70;;
79126;SDS011;68528;48.814;8.904;2023-09-19T00:56:50;1.42;;;0.70;;
79126;SDS011;68528;48.814;8.904;2023-09-19T00:59:19;2.50;;;1.20;;
79126;SDS011;68528;48.814;8.904;2023-09-19T01:01:47;0.85;;;0.70;;
79126;SDS011;68528;48.814;8.904;2023-09-19T01:04:17;1.00;;;0.60;;
79126;SDS011;68528;48.814;8.904;2023-09-19T01:06:43;1.55;;;0.70;;
79126;SDS011;68528;48.814;8.904;2023-09-19T01:09:10;1.25;;;0.70;;
79126;SDS011;68528;48.814;8.904;2023-09-19T01:11:38;3.80;;;0.70;;
79126;SDS011;68528;48.814;8.904;2023-09-19T01:17:26;3.13;;;0.73;;
79126;SDS011;68528;48.814;8.904;2023-09-19T01:20:03;1.20;;;0.65;;
79126;SDS011;68528;48.814;8.904;2023-09-19T01:30:51;1.20;;;0.60;;
79126;SDS011;68528;48.814;8.904;2023-09-19T01:33:23;1.23;;;0.73;;
79126;SDS011;68528;48.814;8.904;2023-09-19T01:35:48;3.13;;;0.80;;
79126;SDS011;68528;48.814;8.904;2023-09-19T01:38:15;2.75;;;1.00;;
79126;SDS011;68528;48.814;8.904;2023-09-19T01:41:04;1.63;;;0.85;;
79126;SDS011;68528;48.814;8.904;2023-09-19T01:43:41;2.65;;;0.60;;
79126;SDS011;68528;48.814;8.904;2023-09-19T01:46:14;2.13;;;1.42;;
79126;SDS011;68528;48.814;8.904;2023-09-19T01:48:54;2.38;;;1.73;;
79126;SDS011;68528;48.814;8.904;2023-09-19T01:51:46;0.90;;;0.70;;
79126;SDS011;68528;48.814;8.904;2023-09-19T01:54:32;0.98;;;0.60;;
79126;SDS011;68528;48.814;8.904;2023-09-19T01:59:50;3.65;;;1.00;;
79126;SDS011;68528;48.814;8.904;2023-09-19T02:02:21;1.42;;;0.90;;
79126;SDS011;68528;48.814;8.904;2023-09-19T02:04:48;1.77;;;0.85;;
79126;SDS011;68528;48.814;8.904;2023-09-19T02:07:15;3.25;;;0.90;;
79126;SDS011;68528;48.814;8.904;2023-09-19T02:09:41;3.75;;;1.02;;
79126;SDS011;68528;48.814;8.904;2023-09-19T02:12:08;2.17;;;0.80;;
79126;SDS011;68528;48.814;8.904;2023-09-19T02:14:34;2.22;;;0.70;;
79126;SDS011;68528;48.814;8.904;2023-09-19T02:17:01;2.80;;;0.68;;
79126;SDS011;68528;48.814;8.904;2023-09-19T02:19:28;1.23;;;0.90;;
79126;SDS011;68528;48.814;8.904;2023-09-19T02:21:55;1.25;;;0.75;;
79126;SDS011;68528;48.814;8.904;2023-09-19T02:24:20;1.15;;;0.70;;
79126;SDS011;68528;48.814;8.904;2023-09-19T02:26:45;1.92;;;0.70;;
79126;SDS011;68528;48.814;8.904;2023-09-19T02:29:12;1.42;;;0.50;;
79126;SDS011;68528;48.814;8.904;2023-09-19T02:31:38;2.42;;;0.70;;
79126;SDS011;68528;48.814;8.904;2023-09-19T02:34:04;1.88;;;0.82;;
79126;SDS011;68528;48.814;8.904;2023-09-19T02:36:52;2.17;;;0.60;;
79126;SDS011;68528;48.814;8.904;2023-09-19T02:39:20;3.05;;;0.57;;
79126;SDS011;68528;48.814;8.904;2023-09-19T02:41:45;1.30;;;0.82;;
79126;SDS011;68528;48.814;8.904;2023-09-19T02:44:11;3.35;;;0.80;;
79126;SDS011;68528;48.814;8.904;2023-09-19T02:46:37;2.13;;;0.70;;
79126;SDS011;68528;48.814;8.904;2023-09-19T02:49:02;1.20;;;0.60;;
79126;SDS011;68528;48.814;8.904;2023-09-19T02:51:31;1.63;;;0.85;;
79126;SDS011;68528;48.814;8.904;2023-09-19T02:53:59;2.03;;;0.73;;
79126;SDS011;68528;48.814;8.904;2023-09-19T02:56:25;1.27;;;0.50;;
79126;SDS011;68528;48.814;8.904;2023-09-19T02:59:10;1.23;;;0.65;;
79126;SDS011;68528;48.814;8.904;2023-09-19T03:01:36;1.23;;;0.47;;
79126;SDS011;68528;48.814;8.904;2023-09-19T03:04:05;0.90;;;0.60;;
79126;SDS011;68528;48.814;8.904;2023-09-19T03:06:33;0.77;;;0.60;;
79126;SDS011;68528;48.814;8.904;2023-09-19T03:08:59;2.28;;;0.73;;
79126;SDS011;68528;48.814;8.904;2023-09-19T03:11:25;1.90;;;0.60;;
79126;SDS011;68528;48.814;8.904;2023-09-19T03:13:53;0.77;;;0.65;;
79126;SDS011;68528;48.814;8.904;2023-09-19T03:16:19;0.85;;;0.60;;
79126;SDS011;68528;48.814;8.904;2023-09-19T03:18:47;0.70;;;0.43;;
79126;SDS011;68528;48.814;8.904;2023-09-19T03:21:14;0.80;;;0.50;;
79126;SDS011;68528;48.814;8.904;2023-09-19T03:23:40;0.88;;;0.50;;
79126;SDS011;68528;48.814;8.904;2023-09-19T03:26:05;3.13;;;0.70;;
79126;SDS011;68528;48.814;8.904;2023-09-19T03:28:32;0.82;;;0.50;;
79126;SDS011;68528;48.814;8.904;2023-09-19T03:31:03;0.60;;;0.50;;
79126;SDS011;68528;48.814;8.904;2023-09-19T03:33:30;1.33;;;0.73;;
79126;SDS011;68528;48.814;8.904;2023-09-19T03:35:59;0.80;;;0.60;;
79126;SDS011;68528;48.814;8.904;2023-09-19T03:38:26;1.20;;;0.43;;
79126;SDS011;68528;48.814;8.904;2023-09-19T03:40:53;1.75;;;0.63;;
79126;SDS011;68528;48.814;8.904;2023-09-19T03:43:18;1.00;;;0.52;;
79126;SDS011;68528;48.814;8.904;2023-09-19T03:45:44;3.00;;;0.90;;
79126;SDS011;68528;48.814;8.904;2023-09-19T03:48:10;2.50;;;0.90;;
79126;SDS011;68528;48.814;8.904;2023-09-19T03:50:36;3.75;;;0.95;;
79126;SDS011;68528;48.814;8.904;2023-09-19T03:53:02;2.03;;;0.70;;
79126;SDS011;68528;48.814;8.904;2023-09-19T03:55:27;1.92;;;0.80;;
79126;SDS011;68528;48.814;8.904;2023-09-19T03:57:55;1.80;;;1.02;;
79126;SDS011;68528;48.814;8.904;2023-09-19T04:00:20;1.88;;;0.73;;
79126;SDS011;68528;48.814;8.904;2023-09-19T04:02:48;1.38;;;0.85;;
79126;SDS011;68528;48.814;8.904;2023-09-19T04:05:20;1.35;;;0.80;;
79126;SDS011;68528;48.814;8.904;2023-09-19T04:07:50;2.72;;;0.70;;
79126;SDS011;68528;48.814;8.904;2023-09-19T04:10:15;1.20;;;0.80;;
79126;SDS011;68528;48.814;8.904;2023-09-19T04:12:50;2.45;;;0.70;;
79126;SDS011;68528;48.814;8.904;2023-09-19T04:15:18;1.52;;;0.70;;
79126;SDS011;68528;48.814;8.904;2023-09-19T04:17:44;3.67;;;0.95;;
79126;SDS011;68528;48.814;8.904;2023-09-19T04:20:10;1.27;;;1.13;;
79126;SDS011;68528;48.814;8.904;2023-09-19T04:22:55;1.60;;;0.85;;
79126;SDS011;68528;48.814;8.904;2023-09-19T04:25:22;2.60;;;0.90;;
79126;SDS011;68528;48.814;8.904;2023-09-19T04:27:49;1.90;;;0.77;;
79126;SDS011;68528;48.814;8.904;2023-09-19T04:30:14;1.48;;;0.93;;
79126;SDS011;68528;48.814;8.904;2023-09-19T04:32:41;1.38;;;0.85;;
79126;SDS011;68528;48.814;8.904;2023-09-19T04:35:07;2.22;;;1.02;;
79126;SDS011;68528;48.814;8.904;2023-09-19T04:37:35;2.63;;;1.20;;
79126;SDS011;68528;48.814;8.904;2023-09-19T04:40:03;1.20;;;0.90;;
79126;SDS011;68528;48.814;8.904;2023-09-19T04:42:31;1.00;;;0.80;;
79126;SDS011;68528;48.814;8.904;2023-09-19T04:44:59;1.48;;;0.90;;
79126;SDS011;68528;48.814;8.904;2023-09-19T04:47:29;2.05;;;1.20;;
79126;SDS011;68528;48.814;8.904;2023-09-19T04:49:55;1.85;;;1.30;;
79126;SDS011;68528;48.814;8.904;2023-09-19T04:52:23;2.33;;;1.10;;
79126;SDS011;68528;48.814;8.904;2023-09-19T04:54:48;2.13;;;1.13;;
79126;SDS011;68528;48.814;8.904;2023-09-19T04:57:13;2.47;;;1.45;;
79126;SDS011;68528;48.814;8.904;2023-09-19T04:59:40;1.52;;;1.05;;
79126;SDS011;68528;48.814;8.904;2023-09-19T05:02:06;2.60;;;1.08;;
79126;SDS011;68528;48.814;8.904;2023-09-19T05:04:33;4.57;;;1.20;;
79126;SDS011;68528;48.814;8.904;2023-09-19T05:06:59;3.40;;;1.20;;
79126;SDS011;68528;48.814;8.904;2023-09-19T05:09:32;4.50;;;0.90;;
79126;SDS011;68528;48.814;8.904;2023-09-19T05:11:59;1.20;;;1.05;;
79126;SDS011;68528;48.814;8.904;2023-09-19T05:14:37;2.25;;;1.13;;
79126;SDS011;68528;48.814;8.904;2023-09-19T05:17:08;1.50;;;0.98;;
79126;SDS011;68528;48.814;8.904;2023-09-19T05:25:54;1.45;;;0.80;;
79126;SDS011;68528;48.814;8.904;2023-09-19T05:28:21;2.22;;;1.02;;
79126;SDS011;68528;48.814;8.904;2023-09-19T05:30:47;1.25;;;0.88;;
79126;SDS011;68528;48.814;8.904;2023-09-19T05:33:14;1.80;;;0.98;;
79126;SDS011;68528;48.814;8.904;2023-09-19T05:35:52;2.53;;;1.52;;
79126;SDS011;68528;48.814;8.904;2023-09-19T05:41:19;2.22;;;1.48;;
79126;SDS011;68528;48.814;8.904;2023-09-19T05:44:05;2.28;;;1.23;;
79126;SDS011;68528;48.814;8.904;2023-09-19T05:46:32;2.45;;;1.10;;
79126;SDS011;68528;48.814;8.904;2023-09-19T05:48:57;1.42;;;1.10;;
79126;SDS011;68528;48.814;8.904;2023-09-19T05:51:22;2.47;;;1.38;;
79126;SDS011;68528;48.814;8.904;2023-09-19T05:53:48;3.75;;;1.58;;
79126;SDS011;68528;48.814;8.904;2023-09-19T05:56:14;2.22;;;1.20;;
79126;SDS011;68528;48.814;8.904;2023-09-19T05:58:40;4.30;;;1.25;;
79126;SDS011;68528;48.814;8.904;2023-09-19T06:01:09;1.77;;;1.40;;
79126;SDS011;68528;48.814;8.904;2023-09-19T06:03:34;1.70;;;1.30;;
79126;SDS011;68528;48.814;8.904;2023-09-19T06:06:01;2.15;;;1.30;;
79126;SDS011;68528;48.814;8.904;2023-09-19T06:08:26;1.50;;;1.27;;
79126;SDS011;68528;48.814;8.904;2023-09-19T06:10:53;4.57;;;1.70;;
79126;SDS011;68528;48.814;8.904;2023-09-19T06:13:19;4.05;;;1.80;;
79126;SDS011;68528;48.814;8.904;2023-09-19T06:15:45;2.78;;;1.50;;
79126;SDS011;68528;48.814;8.904;2023-09-19T06:18:12;3.97;;;1.92;;
79126;SDS011;68528;48.814;8.904;2023-09-19T06:20:47;6.60;;;1.85;;
79126;SDS011;68528;48.814;8.904;2023-09-19T06:23:14;4.00;;;1.75;;
79126;SDS011;68528;48.814;8.904;2023-09-19T06:25:40;5.00;;;1.65;;
79126;SDS011;68528;48.814;8.904;2023-09-19T06:28:05;2.20;;;1.08;;
79126;SDS011;68528;48.814;8.904;2023-09-19T06:30:33;3.55;;;1.27;;
79126;SDS011;68528;48.814;8.904;2023-09-19T06:32:59;3.05;;;1.40;;
79126;SDS011;68528;48.814;8.904;2023-09-19T06:35:26;4.65;;;2.08;;
79126;SDS011;68528;48.814;8.904;2023-09-19T06:37:54;2.17;;;1.50;;
79126;SDS011;68528;48.814;8.904;2023-09-19T06:40:23;3.55;;;1.70;;
79126;SDS011;68528;48.814;8.904;2023-09-19T06:42:52;3.22;;;1.77;;
79126;SDS011;68528;48.814;8.904;2023-09-19T06:45:19;3.30;;;2.08;;
79126;SDS011;68528;48.814;8.904;2023-09-19T06:47:50;16.23;;;3.15;;
79126;SDS011;68528;48.814;8.904;2023-09-19T06:50:16;6.15;;;1.95;;
79126;SDS011;68528;48.814;8.904;2023-09-19T06:52:48;7.75;;;3.03;;
79126;SDS011;68528;48.814;8.904;2023-09-19T06:55:25;7.18;;;2.13;;
79126;SDS011;68528;48.814;8.904;2023-09-19T07:08:33;5.93;;;1.92;;
79126;SDS011;68528;48.814;8.904;2023-09-19T07:10:58;4.35;;;1.92;;
79126;SDS011;68528;48.814;8.904;2023-09-19T07:13:25;3.30;;;1.52;;
79126;SDS011;68528;48.814;8.904;2023-09-19T07:15:50;6.88;;;1.25;;
79126;SDS011;68528;48.814;8.904;2023-09-19T07:18:16;4.70;;;2.08;;
79126;SDS011;68528;48.814;8.904;2023-09-19T07:20:43;6.47;;;2.10;;
79126;SDS011;68528;48.814;8.904;2023-09-19T07:23:17;3.53;;;1.75;;
79126;SDS011;68528;48.814;8.904;2023-09-19T07:25:43;3.20;;;1.60;;
79126;SDS011;68528;48.814;8.904;2023-09-19T07:28:09;4.18;;;1.98;;
79126;SDS011;68528;48.814;8.904;2023-09-19T07:30:54;5.05;;;1.80;;
79126;SDS011;68528;48.814;8.904;2023-09-19T07:33:22;3.10;;;1.77;;
79126;SDS011;68528;48.814;8.904;2023-09-19T07:35:49;6.03;;;1.42;;
79126;SDS011;68528;48.814;8.904;2023-09-19T07:38:15;3.90;;;2.10;;
79126;SDS011;68528;48.814;8.904;2023-09-19T07:40:40;2.85;;;1.55;;
79126;SDS011;68528;48.814;8.904;2023-09-19T07:43:06;7.27;;;2.13;;
79126;SDS011;68528;48.814;8.904;2023-09-19T07:45:31;3.88;;;1.35;;
79126;SDS011;68528;48.814;8.904;2023-09-19T07:47:57;11.73;;;2.45;;
79126;SDS011;68528;48.814;8.904;2023-09-19T07:50:29;10.23;;;1.75;;
79126;SDS011;68528;48.814;8.904;2023-09-19T07:53:14;5.68;;;1.80;;
79126;SDS011;68528;48.814;8.904;2023-09-19T07:55:45;4.90;;;1.45;;
79126;SDS011;68528;48.814;8.904;2023-09-19T07:58:13;6.68;;;1.65;;
79126;SDS011;68528;48.814;8.904;2023-09-19T08:00:38;10.35;;;2.78;;
79126;SDS011;68528;48.814;8.904;2023-09-19T08:03:04;3.47;;;1.42;;
79126;SDS011;68528;48.814;8.904;2023-09-19T08:12:16;2.92;;;1.13;;
79126;SDS011;68528;48.814;8.904;2023-09-19T08:14:42;7.53;;;1.60;;
79126;SDS011;68528;48.814;8.904;2023-09-19T08:17:07;4.07;;;1.25;;
79126;SDS011;68528;48.814;8.904;2023-09-19T08:19:34;3.80;;;0.80;;
79126;SDS011;68528;48.814;8.904;2023-09-19T08:21:59;2.65;;;0.90;;
79126;SDS011;68528;48.814;8.904;2023-09-19T08:28:00;4.28;;;1.10;;
79126;SDS011;68528;48.814;8.904;2023-09-19T08:30:34;2.45;;;1.15;;
79126;SDS011;68528;48.814;8.904;2023-09-19T08:33:02;4.65;;;0.70;;
79126;SDS011;68528;48.814;8.904;2023-09-19T08:35:29;3.05;;;1.10;;
79126;SDS011;68528;48.814;8.904;2023-09-19T08:37:55;4.47;;;0.95;;
79126;SDS011;68528;48.814;8.904;2023-09-19T08:40:25;3.15;;;1.05;;
79126;SDS011;68528;48.814;8.904;2023-09-19T08:42:54;10.13;;;1.55;;
79126;SDS011;68528;48.814;8.904;2023-09-19T08:50:27;1.63;;;0.93;;
79126;SDS011;68528;48.814;8.904;2023-09-19T08:56:18;1.10;;;0.70;;
79126;SDS011;68528;48.814;8.904;2023-09-19T09:01:58;1.42;;;0.65;;
79126;SDS011;68528;48.814;8.904;2023-09-19T09:04:35;2.38;;;0.80;;
79126;SDS011;68528;48.814;8.904;2023-09-19T09:10:29;4.00;;;0.80;;
79126;SDS011;68528;48.814;8.904;2023-09-19T09:12:54;3.40;;;0.90;;
79126;SDS011;68528;48.814;8.904;2023-09-19T09:15:21;5.90;;;1.10;;
79126;SDS011;68528;48.814;8.904;2023-09-19T09:17:48;7.60;;;1.00;;
79126;SDS011;68528;48.814;8.904;2023-09-19T09:20:16;2.55;;;1.10;;
79126;SDS011;68528;48.814;8.904;2023-09-19T09:23:26;5.63;;;1.30;;
79126;SDS011;68528;48.814;8.904;2023-09-19T09:25:54;4.85;;;1.10;;
79126;SDS011;68528;48.814;8.904;2023-09-19T09:28:23;1.58;;;0.80;;
79126;SDS011;68528;48.814;8.904;2023-09-19T09:30:53;2.95;;;0.90;;
79126;SDS011;68528;48.814;8.904;2023-09-19T09:33:19;1.50;;;0.60;;
79126;SDS011;68528;48.814;8.904;2023-09-19T09:35:56;4.18;;;0.90;;
79126;SDS011;68528;48.814;8.904;2023-09-19T09:38:26;2.10;;;0.60;;
79126;SDS011;68528;48.814;8.904;2023-09-19T09:40:57;1.27;;;0.77;;
79126;SDS011;68528;48.814;8.904;2023-09-19T09:43:37;2.78;;;1.05;;
79126;SDS011;68528;48.814;8.904;2023-09-19T09:46:15;2.15;;;0.65;;
79126;SDS011;68528;48.814;8.904;2023-09-19T09:48:48;2.70;;;0.90;;
79126;SDS011;68528;48.814;8.904;2023-09-19T09:51:39;2.05;;;0.90;;
79126;SDS011;68528;48.814;8.904;2023-09-19T09:54:11;5.50;;;1.00;;
79126;SDS011;68528;48.814;8.904;2023-09-19T10:02:19;1.45;;;0.85;;
79126;SDS011;68528;48.814;8.904;2023-09-19T10:04:57;2.42;;;1.05;;
79126;SDS011;68528;48.814;8.904;2023-09-19T10:08:10;3.03;;;0.70;;
79126;SDS011;68528;48.814;8.904;2023-09-19T10:10:39;1.13;;;0.75;;
79126;SDS011;68528;48.814;8.904;2023-09-19T10:13:10;1.42;;;0.75;;
79126;SDS011;68528;48.814;8.904;2023-09-19T10:15:43;3.50;;;0.90;;
79126;SDS011;68528;48.814;8.904;2023-09-19T10:18:33;4.15;;;0.73;;
79126;SDS011;68528;48.814;8.904;2023-09-19T10:21:01;2.72;;;0.70;;
79126;SDS011;68528;48.814;8.904;2023-09-19T10:23:30;2.00;;;0.70;;
79126;SDS011;68528;48.814;8.904;2023-09-19T10:25:59;3.58;;;0.70;;
79126;SDS011;68528;48.814;8.904;2023-09-19T10:28:27;1.95;;;0.65;;
79126;SDS011;68528;48.814;8.904;2023-09-19T10:30:54;1.40;;;0.70;;
79126;SDS011;68528;48.814;8.904;2023-09-19T10:33:24;1.17;;;0.50;;
79126;SDS011;68528;48.814;8.904;2023-09-19T10:36:01;1.13;;;0.80;;
79126;SDS011;68528;48.814;8.904;2023-09-19T10:38:30;1.10;;;0.63;;
79126;SDS011;68528;48.814;8.904;2023-09-19T10:40:58;1.45;;;0.70;;
79126;SDS011;68528;48.814;8.904;2023-09-19T10:43:29;2.03;;;0.90;;
79126;SDS011;68528;48.814;8.904;2023-09-19T10:46:00;2.10;;;0.95;;
79126;SDS011;68528;48.814;8.904;2023-09-19T10:48:31;0.80;;;0.40;;
79126;SDS011;68528;48.814;8.904;2023-09-19T10:50:58;1.88;;;0.90;;
79126;SDS011;68528;48.814;8.904;2023-09-19T10:53:46;4.90;;;0.90;;
79126;SDS011;68528;48.814;8.904;2023-09-19T10:56:29;2.15;;;0.70;;
79126;SDS011;68528;48.814;8.904;2023-09-19T11:04:36;2.25;;;0.75;;
79126;SDS011;68528;48.814;8.904;2023-09-19T11:09:52;1.10;;;0.60;;
79126;SDS011;68528;48.814;8.904;2023-09-19T11:13:23;1.20;;;0.70;;
79126;SDS011;68528;48.814;8.904;2023-09-19T11:26:47;1.42;;;0.75;;
79126;SDS011;68528;48.814;8.904;2023-09-19T11:31:56;2.20;;;1.10;;
79126;SDS011;68528;48.814;8.904;2023-09-19T11:40:10;2.30;;;0.80;;
79126;SDS011;68528;48.814;8.904;2023-09-19T11:42:45;2.03;;;1.08;;
79126;SDS011;68528;48.814;8.904;2023-09-19T11:46:04;1.67;;;0.80;;
79126;SDS011;68528;48.814;8.904;2023-09-19T11:48:34;0.98;;;0.60;;
79126;SDS011;68528;48.814;8.904;2023-09-19T11:51:00;2.72;;;1.02;;
79126;SDS011;68528;48.814;8.904;2023-09-19T11:53:32;1.85;;;0.70;;
79126;SDS011;68528;48.814;8.904;2023-09-19T11:56:01;1.55;;;0.60;;
79126;SDS011;68528;48.814;8.904;2023-09-19T11:58:32;4.18;;;0.88;;
79126;SDS011;68528;48.814;8.904;2023-09-19T12:00:58;2.15;;;0.93;;
79126;SDS011;68528;48.814;8.904;2023-09-19T12:03:27;3.00;;;1.95;;
79126;SDS011;68528;48.814;8.904;2023-09-19T12:05:56;0.82;;;0.55;;
79126;SDS011;68528;48.814;8.904;2023-09-19T12:08:23;2.22;;;0.88;;
79126;SDS011;68528;48.814;8.904;2023-09-19T12:10:49;1.73;;;0.80;;
79126;SDS011;68528;48.814;8.904;2023-09-19T12:13:23;2.30;;;0.68;;
79126;SDS011;68528;48.814;8.904;2023-09-19T12:15:50;2.67;;;0.77;;
79126;SDS011;68528;48.814;8.904;2023-09-19T12:18:28;2.78;;;0.85;;
79126;SDS011;68528;48.814;8.904;2023-09-19T12:20:55;0.85;;;0.70;;
79126;SDS011;68528;48.814;8.904;2023-09-19T12:23:21;1.02;;;0.70;;
79126;SDS011;68528;48.814;8.904;2023-09-19T12:25:46;1.25;;;0.68;;
79126;SDS011;68528;48.814;8.904;2023-09-19T12:28:12;4.15;;;0.75;;
79126;SDS011;68528;48.814;8.904;2023-09-19T12:30:41;2.95;;;0.80;;
79126;SDS011;68528;48.814;8.904;2023-09-19T12:33:19;1.20;;;0.63;;
79126;SDS011;68528;48.814;8.904;2023-09-19T12:35:46;2.17;;;0.90;;
79126;SDS011;68528;48.814;8.904;2023-09-19T12:38:22;3.20;;;0.73;;
79126;SDS011;68528;48.814;8.904;2023-09-19T12:40:56;2.28;;;0.70;;
79126;SDS011;68528;48.814;8.904;2023-09-19T12:43:28;1.17;;;0.52;;
79126;SDS011;68528;48.814;8.904;2023-09-19T12:45:57;1.05;;;0.55;;
79126;SDS011;68528;48.814;8.904;2023-09-19T12:48:25;4.78;;;0.80;;
79126;SDS011;68528;48.814;8.904;2023-09-19T12:53:37;1.65;;;0.70;;
79126;SDS011;68528;48.814;8.904;2023-09-19T12:56:07;4.43;;;0.90;;
79126;SDS011;68528;48.814;8.904;2023-09-19T12:58:34;2.13;;;0.80;;
79126;SDS011;68528;48.814;8.904;2023-09-19T13:01:16;1.85;;;1.17;;
79126;SDS011;68528;48.814;8.904;2023-09-19T13:04:11;1.90;;;1.08;;
79126;SDS011;68528;48.814;8.904;2023-09-19T13:06:47;1.65;;;0.90;;
79126;SDS011;68528;48.814;8.904;2023-09-19T13:09:16;2.10;;;0.63;;
79126;SDS011;68528;48.814;8.904;2023-09-19T13:11:43;1.67;;;0.90;;
79126;SDS011;68528;48.814;8.904;2023-09-19T13:14:21;1.40;;;0.73;;
79126;SDS011;68528;48.814;8.904;2023-09-19T13:17:03;0.60;;;0.52;;
79126;SDS011;68528;48.814;8.904;2023-09-19T13:19:44;1.55;;;0.70;;
79126;SDS011;68528;48.814;8.904;2023-09-19T13:25:15;1.77;;;0.70;;
79126;SDS011;68528;48.814;8.904;2023-09-19T13:27:45;1.52;;;0.70;;
79126;SDS011;68528;48.814;8.904;2023-09-19T13:30:17;2.03;;;0.77;;
79126;SDS011;68528;48.814;8.904;2023-09-19T13:32:46;2.10;;;0.70;;
79126;SDS011;68528;48.814;8.904;2023-09-19T13:35:15;1.55;;;0.70;;
79126;SDS011;68528;48.814;8.904;2023-09-19T13:37:41;2.38;;;0.70;;
79126;SDS011;68528;48.814;8.904;2023-09-19T13:42:34;1.70;;;0.77;;
79126;SDS011;68528;48.814;8.904;2023-09-19T13:45:01;2.42;;;1.00;;
79126;SDS011;68528;48.814;8.904;2023-09-19T13:47:28;1.98;;;0.70;;
79126;SDS011;68528;48.814;8.904;2023-09-19T13:49:54;1.50;;;0.73;;
79126;SDS011;68528;48.814;8.904;2023-09-19T13:52:20;2.60;;;0.70;;
79126;SDS011;68528;48.814;8.904;2023-09-19T13:54:46;1.50;;;0.65;;
79126;SDS011;68528;48.814;8.904;2023-09-19T13:57:12;4.60;;;0.80;;
79126;SDS011;68528;48.814;8.904;2023-09-19T13:59:44;1.92;;;0.80;;
79126;SDS011;68528;48.814;8.904;2023-09-19T14:02:30;2.75;;;0.88;;
79126;SDS011;68528;48.814;8.904;2023-09-19T14:04:56;1.30;;;0.85;;
79126;SDS011;68528;48.814;8.904;2023-09-19T14:07:22;1.95;;;1.08;;
79126;SDS011;68528;48.814;8.904;2023-09-19T14:09:48;3.47;;;0.85;;
79126;SDS011;68528;48.814;8.904;2023-09-19T14:12:13;2.67;;;0.60;;
79126;SDS011;68528;48.814;8.904;2023-09-19T14:14:39;1.17;;;0.55;;
79126;SDS011;68528;48.814;8.904;2023-09-19T14:17:05;1.33;;;0.85;;
79126;SDS011;68528;48.814;8.904;2023-09-19T14:19:32;2.28;;;1.20;;
79126;SDS011;68528;48.814;8.904;2023-09-19T14:22:00;1.77;;;0.70;;
79126;SDS011;68528;48.814;8.904;2023-09-19T14:24:32;1.65;;;1.05;;
79126;SDS011;68528;48.814;8.904;2023-09-19T14:26:57;1.58;;;0.65;;
79126;SDS011;68528;48.814;8.904;2023-09-19T14:29:24;1.20;;;0.65;;
79126;SDS011;68528;48.814;8.904;2023-09-19T14:31:51;1.23;;;1.10;;
79126;SDS011;68528;48.814;8.904;2023-09-19T14:34:17;8.05;;;5.10;;
79126;SDS011;68528;48.814;8.904;2023-09-19T14:36:50;1.60;;;0.90;;
79126;SDS011;68528;48.814;8.904;2023-09-19T14:39:16;3.05;;;0.75;;
79126;SDS011;68528;48.814;8.904;2023-09-19T14:41:41;1.48;;;0.60;;
79126;SDS011;68528;48.814;8.904;2023-09-19T14:44:06;3.65;;;0.75;;
79126;SDS011;68528;48.814;8.904;2023-09-19T14:46:32;2.25;;;0.73;;
79126;SDS011;68528;48.814;8.904;2023-09-19T14:48:57;1.70;;;0.60;;
79126;SDS011;68528;48.814;8.904;2023-09-19T14:51:29;1.70;;;0.80;;
79126;SDS011;68528;48.814;8.904;2023-09-19T14:53:55;3.25;;;0.40;;
79126;SDS011;68528;48.814;8.904;2023-09-19T14:56:21;2.67;;;0.60;;
79126;SDS011;68528;48.814;8.904;2023-09-19T14:58:48;1.00;;;0.52;;
79126;SDS011;68528;48.814;8.904;2023-09-19T15:01:14;2.13;;;0.63;;
79126;SDS011;68528;48.814;8.904;2023-09-19T15:03:40;2.05;;;0.40;;
79126;SDS011;68528;48.814;8.904;2023-09-19T15:06:07;2.00;;;0.60;;
79126;SDS011;68528;48.814;8.904;2023-09-19T15:08:37;3.13;;;0.55;;
79126;SDS011;68528;48.814;8.904;2023-09-19T15:11:05;1.33;;;0.50;;
79126;SDS011;68528;48.814;8.904;2023-09-19T15:13:32;0.77;;;0.40;;
79126;SDS011;68528;48.814;8.904;2023-09-19T15:16:01;2.08;;;0.60;;
79126;SDS011;68528;48.814;8.904;2023-09-19T15:18:30;1.58;;;0.60;;
79126;SDS011;68528;48.814;8.904;2023-09-19T15:21:05;1.02;;;0.55;;
79126;SDS011;68528;48.814;8.904;2023-09-19T15:23:32;0.98;;;0.60;;
79126;SDS011;68528;48.814;8.904;2023-09-19T15:25:59;0.88;;;0.57;;
79126;SDS011;68528;48.814;8.904;2023-09-19T15:28:27;2.20;;;0.63;;
79126;SDS011;68528;48.814;8.904;2023-09-19T15:31:00;1.17;;;0.50;;
79126;SDS011;68528;48.814;8.904;2023-09-19T15:33:32;1.23;;;0.60;;
79126;SDS011;68528;48.814;8.904;2023-09-19T15:36:07;1.67;;;0.35;;
79126;SDS011;68528;48.814;8.904;2023-09-19T15:41:42;1.88;;;0.50;;
79126;SDS011;68528;48.814;8.904;2023-09-19T15:44:13;1.00;;;0.47;;
79126;SDS011;68528;48.814;8.904;2023-09-19T15:46:44;0.85;;;0.47;;
79126;SDS011;68528;48.814;8.904;2023-09-19T15:49:11;1.85;;;0.40;;
79126;SDS011;68528;48.814;8.904;2023-09-19T15:52:20;2.28;;;0.57;;
79126;SDS011;68528;48.814;8.904;2023-09-19T15:55:22;0.70;;;0.43;;
79126;SDS011;68528;48.814;8.904;2023-09-19T15:57:51;0.73;;;0.45;;
79126;SDS011;68528;48.814;8.904;2023-09-19T16:03:20;1.17;;;0.60;;
79126;SDS011;68528;48.814;8.904;2023-09-19T16:05:51;0.85;;;0.40;;
79126;SDS011;68528;48.814;8.904;2023-09-19T16:11:12;2.13;;;0.60;;
79126;SDS011;68528;48.814;8.904;2023-09-19T16:13:38;2.30;;;0.60;;
79126;SDS011;68528;48.814;8.904;2023-09-19T16:16:10;1.75;;;0.60;;
79126;SDS011;68528;48.814;8.904;2023-09-19T16:18:38;3.67;;;0.65;;
79126;SDS011;68528;48.814;8.904;2023-09-19T16:21:05;0.55;;;0.40;;
79126;SDS011;68528;48.814;8.904;2023-09-19T16:23:33;1.10;;;0.60;;
79126;SDS011;68528;48.814;8.904;2023-09-19T16:26:09;3.40;;;0.63;;
79126;SDS011;68528;48.814;8.904;2023-09-19T16:28:39;0.75;;;0.55;;
79126;SDS011;68528;48.814;8.904;2023-09-19T16:31:06;1.30;;;0.55;;
79126;SDS011;68528;48.814;8.904;2023-09-19T16:33:33;0.82;;;0.38;;
79126;SDS011;68528;48.814;8.904;2023-09-19T16:36:02;0.82;;;0.50;;
79126;SDS011;68528;48.814;8.904;2023-09-19T16:38:33;1.40;;;0.60;;
79126;SDS011;68528;48.814;8.904;2023-09-19T16:40:58;1.35;;;0.60;;
79126;SDS011;68528;48.814;8.904;2023-09-19T16:43:30;1.23;;;0.60;;
79126;SDS011;68528;48.814;8.904;2023-09-19T16:46:08;0.47;;;0.30;;
79126;SDS011;68528;48.814;8.904;2023-09-19T16:48:38;1.17;;;0.50;;
79126;SDS011;68528;48.814;8.904;2023-09-19T16:51:12;2.22;;;0.55;;
79126;SDS011;68528;48.814;8.904;2023-09-19T16:53:39;0.85;;;0.40;;
79126;SDS011;68528;48.814;8.904;2023-09-19T16:56:06;1.20;;;0.60;;